Time;durP1;ratioP1;P1;durP2;ratioP2;P2;SDS_P1;SDS_P2;PMS_P1;PMS_P2;Temp;Humidity;BMP_temperature;BMP_pressure;BME280_temperature;BME280_humidity;BME280_pressure;Samples;Min_cycle;Max_cycle;Signal;HPM_P1;HPM_P2
2023/09/03 00:00:40;;;;;;;2.58;2.05;;;;;;;;;;5054379;28;20162;-80
2023/09/03 00:03:06;;;;;;;2.83;2.00;;;;;;;;;;5051111;28;20105;-81
2023/09/03 00:05:31;;;;;;;2.83;2.22;;;;;;;;;;5027347;28;20089;-81
2023/09/03 00:07:57;;;;;;;3.42;2.42;;;;;;;;;;5028009;28;20329;-80
2023/09/03 00:10:23;;;;;;;3.22;2.03;;;;;;;;;;5049967;28;20467;-80
2023/09/03 00:12:48;;;;;;;3.35;2.25;;;;;;;;;;5055484;28;20020;-80
2023/09/03 00:15:14;;;;;;;3.70;2.30;;;;;;;;;;5058567;28;20051;-80
2023/09/03 00:17:39;;;;;;;2.20;1.90;;;;;;;;;;5055410;28;20025;-79
2023/09/03 00:20:05;;;;;;;2.53;2.30;;;;;;;;;;5069829;28;20039;-80
2023/09/03 00:22:31;;;;;;;3.67;2.10;;;;;;;;;;5050243;28;20054;-81
2023/09/03 00:24:56;;;;;;;2.53;1.75;;;;;;;;;;5052655;28;20045;-80
2023/09/03 00:27:22;;;;;;;3.55;2.30;;;;;;;;;;5061589;28;20048;-79
2023/09/03 00:29:47;;;;;;;2.15;1.85;;;;;;;;;;5056134;28;20122;-80
2023/09/03 00:32:12;;;;;;;2.60;1.90;;;;;;;;;;5062529;28;20029;-80
2023/09/03 00:34:38;;;;;;;3.38;2.28;;;;;;;;;;5065883;28;20033;-80
2023/09/03 00:37:03;;;;;;;3.03;2.00;;;;;;;;;;5063452;28;20493;-81
2023/09/03 00:39:28;;;;;;;3.30;2.20;;;;;;;;;;5051326;28;20020;-81
2023/09/03 00:41:54;;;;;;;2.92;2.13;;;;;;;;;;5057406;28;20033;-80
2023/09/03 00:44:20;;;;;;;3.38;2.38;;;;;;;;;;5061438;28;20024;-80
2023/09/03 00:46:46;;;;;;;2.28;2.00;;;;;;;;;;5053843;28;20024;-78
2023/09/03 00:49:19;;;;;;;3.72;1.92;;;;;;;;;;5060728;28;20127;-80
2023/09/03 00:51:45;;;;;;;3.88;1.98;;;;;;;;;;5058692;28;20040;-78
2023/09/03 00:54:12;;;;;;;1.92;1.80;;;;;;;;;;5063836;28;20029;-80
2023/09/03 00:56:38;;;;;;;2.33;2.00;;;;;;;;;;5066081;28;20132;-79
2023/09/03 00:59:05;;;;;;;2.70;2.03;;;;;;;;;;5041893;28;20424;-81
2023/09/03 01:01:30;;;;;;;3.58;2.10;;;;;;;;;;5054328;28;20055;-80
2023/09/03 01:03:56;;;;;;;4.88;2.25;;;;;;;;;;5049218;28;20021;-79
2023/09/03 01:06:22;;;;;;;2.22;2.03;;;;;;;;;;5055728;28;20024;-81
2023/09/03 01:08:47;;;;;;;2.40;1.67;;;;;;;;;;5050789;28;20121;-81
2023/09/03 01:11:50;;;;;;;3.90;1.92;;;;;;;;;;5041740;28;20036;-80
2023/09/03 01:14:31;;;;;;;2.65;2.30;;;;;;;;;;5056822;28;20028;-80
2023/09/03 01:17:14;;;;;;;3.38;2.35;;;;;;;;;;5056918;28;20037;-81
2023/09/03 01:20:13;;;;;;;3.83;2.30;;;;;;;;;;5035750;28;20032;-81
2023/09/03 01:23:03;;;;;;;2.90;2.17;;;;;;;;;;5017241;28;20072;-79
2023/09/03 01:25:45;;;;;;;2.38;1.75;;;;;;;;;;5055377;28;20454;-79
2023/09/03 01:28:23;;;;;;;3.13;2.08;;;;;;;;;;5059482;28;20048;-80
2023/09/03 01:30:52;;;;;;;2.40;1.95;;;;;;;;;;5057655;28;20037;-80
2023/09/03 01:33:18;;;;;;;2.90;1.80;;;;;;;;;;5059286;28;20029;-80
2023/09/03 01:35:44;;;;;;;3.30;2.20;;;;;;;;;;5065470;28;20057;-80
2023/09/03 01:38:10;;;;;;;2.90;2.17;;;;;;;;;;5063718;28;20040;-79
2023/09/03 01:40:37;;;;;;;3.25;2.17;;;;;;;;;;5060702;28;20055;-80
2023/09/03 01:43:03;;;;;;;3.70;2.25;;;;;;;;;;5055420;28;20025;-80
2023/09/03 01:45:44;;;;;;;3.22;2.13;;;;;;;;;;5055620;28;20431;-80
2023/09/03 01:48:39;;;;;;;2.30;2.10;;;;;;;;;;5053595;28;20063;-81
2023/09/03 01:51:44;;;;;;;3.22;2.10;;;;;;;;;;5057243;28;20253;-78
2023/09/03 01:54:22;;;;;;;3.97;2.22;;;;;;;;;;5057473;28;20050;-81
2023/09/03 01:56:58;;;;;;;2.28;1.77;;;;;;;;;;5059636;28;20507;-80
2023/09/03 01:59:43;;;;;;;3.28;2.10;;;;;;;;;;5062180;28;20036;-80
2023/09/03 02:02:12;;;;;;;5.00;2.08;;;;;;;;;;5041856;28;20123;-81
2023/09/03 02:04:38;;;;;;;3.90;2.00;;;;;;;;;;5040257;28;20040;-80
2023/09/03 02:07:04;;;;;;;2.85;2.00;;;;;;;;;;5060786;28;20516;-80
2023/09/03 02:09:48;;;;;;;3.97;2.60;;;;;;;;;;5083772;22;20143;-80
2023/09/03 02:15:50;;;;;;;3.50;2.28;;;;;;;;;;5082423;28;20122;-80
2023/09/03 02:21:56;;;;;;;2.75;2.00;;;;;;;;;;5060995;28;20136;-80
2023/09/03 02:24:53;;;;;;;3.42;2.13;;;;;;;;;;5045687;28;20044;-79
2023/09/03 02:27:29;;;;;;;2.85;2.10;;;;;;;;;;5059445;28;20032;-79
2023/09/03 02:30:20;;;;;;;4.05;1.98;;;;;;;;;;5059728;28;20025;-79
2023/09/03 02:33:04;;;;;;;3.13;2.22;;;;;;;;;;5055169;28;20021;-79
2023/09/03 02:35:46;;;;;;;2.55;2.05;;;;;;;;;;5062598;28;20021;-79
2023/09/03 02:38:14;;;;;;;;;;;;;;;;;;5050451;28;20040;-79
2023/09/03 02:41:04;;;;;;;3.05;2.13;;;;;;;;;;5065322;28;20457;-79
2023/09/03 02:43:34;;;;;;;2.25;1.83;;;;;;;;;;5055791;28;20506;-79
2023/09/03 02:46:23;;;;;;;;;;;;;;;;;;;;;
2023/09/03 02:49:31;;;;;;;;;;;;;;;;;;;;;
2023/09/03 02:52:06;;;;;;;3.40;1.95;;;;;;;;;;5064005;28;20100;-79
2023/09/03 02:54:48;;;;;;;2.97;2.03;;;;;;;;;;5048712;28;20032;-79
2023/09/03 02:57:29;;;;;;;3.15;2.00;;;;;;;;;;5071429;28;20063;-80
2023/09/03 03:00:00;;;;;;;2.78;2.00;;;;;;;;;;5062654;28;20040;-79
2023/09/03 03:02:29;;;;;;;2.70;1.90;;;;;;;;;;5061669;28;20082;-79
2023/09/03 03:04:57;;;;;;;3.10;1.90;;;;;;;;;;5046097;28;20078;-78
2023/09/03 03:07:27;;;;;;;3.05;2.20;;;;;;;;;;5049252;28;20032;-79
2023/09/03 03:09:53;;;;;;;2.60;1.83;;;;;;;;;;5062402;28;20059;-79
2023/09/03 03:12:18;;;;;;;3.47;2.08;;;;;;;;;;5062632;28;20025;-79
2023/09/03 03:15:02;;;;;;;3.05;2.30;;;;;;;;;;5063699;28;20028;-79
2023/09/03 03:17:28;;;;;;;4.53;2.35;;;;;;;;;;5064664;28;20028;-79
2023/09/03 03:20:07;;;;;;;2.22;2.03;;;;;;;;;;5052837;28;20071;-79
2023/09/03 03:22:33;;;;;;;3.28;2.00;;;;;;;;;;5064749;28;20474;-79
2023/09/03 03:24:58;;;;;;;2.17;1.83;;;;;;;;;;5040357;28;20029;-80
2023/09/03 03:27:37;;;;;;;3.00;1.95;;;;;;;;;;5036336;28;20067;-80
2023/09/03 03:30:08;;;;;;;2.58;2.20;;;;;;;;;;5053591;28;20049;-80
2023/09/03 03:32:38;;;;;;;1.98;1.70;;;;;;;;;;5055315;28;20483;-80
2023/09/03 03:35:05;;;;;;;4.95;2.03;;;;;;;;;;5037760;28;20033;-80
2023/09/03 03:37:33;;;;;;;3.38;2.10;;;;;;;;;;5058349;28;20494;-80
2023/09/03 03:40:03;;;;;;;2.67;2.00;;;;;;;;;;5053421;28;20037;-80
2023/09/03 03:42:37;;;;;;;2.40;1.92;;;;;;;;;;5038986;28;20050;-80
2023/09/03 03:45:05;;;;;;;3.17;2.00;;;;;;;;;;5053351;28;20032;-80
2023/09/03 03:47:37;;;;;;;2.65;1.98;;;;;;;;;;5040967;28;20033;-80
2023/09/03 03:50:09;;;;;;;5.43;2.20;;;;;;;;;;5056923;28;20024;-80
2023/09/03 03:52:35;;;;;;;3.38;2.08;;;;;;;;;;5060331;28;21219;-81
2023/09/03 03:55:07;;;;;;;5.05;2.45;;;;;;;;;;5059694;28;20051;-80
2023/09/03 03:57:32;;;;;;;4.72;2.08;;;;;;;;;;5050727;28;20029;-80
2023/09/03 03:59:57;;;;;;;2.63;2.30;;;;;;;;;;5050874;28;20064;-80
2023/09/03 04:02:28;;;;;;;1.85;1.73;;;;;;;;;;5059673;28;20028;-80
2023/09/03 04:04:54;;;;;;;2.78;2.00;;;;;;;;;;5052228;28;20048;-80
2023/09/03 04:07:22;;;;;;;2.67;1.92;;;;;;;;;;5060510;28;20158;-80
2023/09/03 04:09:48;;;;;;;2.00;1.80;;;;;;;;;;5040513;28;20025;-80
2023/09/03 04:12:16;;;;;;;2.28;1.90;;;;;;;;;;5055420;28;20027;-80
2023/09/03 04:14:41;;;;;;;2.80;2.08;;;;;;;;;;5053479;28;20025;-80
2023/09/03 04:17:07;;;;;;;3.53;2.70;;;;;;;;;;5040594;28;20115;-80
2023/09/03 04:19:34;;;;;;;4.03;2.47;;;;;;;;;;5036578;28;20040;-80
2023/09/03 04:22:05;;;;;;;4.05;2.38;;;;;;;;;;5038914;28;20021;-79
2023/09/03 04:24:30;;;;;;;3.25;2.20;;;;;;;;;;5039877;28;20075;-80
2023/09/03 04:26:55;;;;;;;2.95;2.10;;;;;;;;;;5055898;28;20021;-80
2023/09/03 04:29:21;;;;;;;4.15;2.22;;;;;;;;;;5041921;28;20025;-80
2023/09/03 04:31:46;;;;;;;3.58;2.03;;;;;;;;;;5058985;28;20055;-80
2023/09/03 04:34:13;;;;;;;5.15;2.20;;;;;;;;;;5059415;28;20052;-80
2023/09/03 04:36:44;;;;;;;2.65;2.13;;;;;;;;;;5066817;28;20102;-80
2023/09/03 04:39:11;;;;;;;2.42;2.08;;;;;;;;;;5037643;28;20387;-80
2023/09/03 04:41:39;;;;;;;2.90;2.10;;;;;;;;;;5042695;28;20131;-80
2023/09/03 04:44:09;;;;;;;3.03;1.95;;;;;;;;;;5043433;28;20078;-80
2023/09/03 04:46:34;;;;;;;3.83;1.92;;;;;;;;;;5063975;28;20091;-80
2023/09/03 04:49:00;;;;;;;2.85;2.03;;;;;;;;;;5038368;28;20506;-80
2023/09/03 04:51:28;;;;;;;2.90;2.20;;;;;;;;;;5060505;28;20021;-81
2023/09/03 04:54:06;;;;;;;5.18;2.40;;;;;;;;;;5055042;28;20017;-81
2023/09/03 04:56:32;;;;;;;7.72;2.63;;;;;;;;;;5060696;28;20097;-81
2023/09/03 04:58:57;;;;;;;6.55;2.42;;;;;;;;;;5046445;28;20131;-81
2023/09/03 05:01:26;;;;;;;3.53;2.35;;;;;;;;;;5065374;28;20029;-81
2023/09/03 05:03:51;;;;;;;3.00;2.08;;;;;;;;;;5054903;28;20021;-81
2023/09/03 05:06:30;;;;;;;2.78;2.20;;;;;;;;;;5043999;28;20040;-80
2023/09/03 05:09:06;;;;;;;3.35;2.42;;;;;;;;;;5061777;28;20036;-81
2023/09/03 05:11:32;;;;;;;4.50;2.80;;;;;;;;;;5063161;28;20081;-81
2023/09/03 05:14:00;;;;;;;3.22;2.33;;;;;;;;;;5071517;28;20052;-80
2023/09/03 05:16:59;;;;;;;3.90;2.60;;;;;;;;;;5071402;28;20390;-81
2023/09/03 05:19:33;;;;;;;3.20;2.20;;;;;;;;;;5038560;28;20059;-81
2023/09/03 05:22:02;;;;;;;3.05;2.20;;;;;;;;;;5044706;28;20171;-81
2023/09/03 05:24:48;;;;;;;3.42;2.35;;;;;;;;;;5045735;28;20379;-81
2023/09/03 05:27:21;;;;;;;3.85;2.65;;;;;;;;;;5066560;28;20480;-81
2023/09/03 05:29:49;;;;;;;2.30;1.77;;;;;;;;;;5057548;28;20044;-81
2023/09/03 05:32:17;;;;;;;2.53;2.17;;;;;;;;;;5059406;28;20026;-81
2023/09/03 05:35:09;;;;;;;3.55;2.35;;;;;;;;;;5057228;28;20021;-81
2023/09/03 05:37:35;;;;;;;;;;;;;;;;;;5061603;28;21333;-81
2023/09/03 05:40:13;;;;;;;2.78;2.13;;;;;;;;;;5062714;28;20378;-81
2023/09/03 05:42:39;;;;;;;4.70;2.30;;;;;;;;;;5061671;28;20036;-81
2023/09/03 05:45:08;;;;;;;2.22;2.03;;;;;;;;;;5040404;28;20028;-81
2023/09/03 05:47:49;;;;;;;2.30;1.80;;;;;;;;;;5065417;28;20126;-80
2023/09/03 05:50:23;;;;;;;4.18;2.22;;;;;;;;;;5039721;28;20035;-81
2023/09/03 05:53:22;;;;;;;;;;;;;;;;;;;;;
2023/09/03 05:55:51;;;;;;;2.60;2.20;;;;;;;;;;5059889;28;20054;-81
2023/09/03 05:58:21;;;;;;;2.72;2.53;;;;;;;;;;5060756;28;20028;-81
2023/09/03 06:00:50;;;;;;;2.60;2.30;;;;;;;;;;5043233;28;20032;-81
2023/09/03 06:04:14;;;;;;;3.70;2.40;;;;;;;;;;5060560;28;20071;-81
2023/09/03 06:06:47;;;;;;;3.90;2.53;;;;;;;;;;5047782;28;20037;-81
2023/09/03 06:09:56;;;;;;;2.50;2.10;;;;;;;;;;5065650;28;20020;-81
2023/09/03 06:12:23;;;;;;;3.33;2.60;;;;;;;;;;5057434;28;20024;-81
2023/09/03 06:14:49;;;;;;;2.10;1.90;;;;;;;;;;5040934;28;20025;-81
2023/09/03 06:17:17;;;;;;;7.50;2.70;;;;;;;;;;5056337;28;20020;-82
2023/09/03 06:19:55;;;;;;;2.60;2.40;;;;;;;;;;5056540;28;20044;-81
2023/09/03 06:26:14;;;;;;;7.18;2.60;;;;;;;;;;4980581;28;20037;-81
2023/09/03 06:28:48;;;;;;;3.25;2.58;;;;;;;;;;5056777;28;20120;-81
2023/09/03 06:31:21;;;;;;;3.33;2.60;;;;;;;;;;5063520;28;20028;-81
2023/09/03 06:40:48;;;;;;;3.88;2.58;;;;;;;;;;5215047;22;20048;-86
2023/09/03 06:43:13;;;;;;;3.92;2.53;;;;;;;;;;5068505;28;20024;-86
2023/09/03 06:45:39;;;;;;;3.72;2.55;;;;;;;;;;5086238;28;20039;-86
2023/09/03 06:48:04;;;;;;;4.35;2.70;;;;;;;;;;5085869;28;20248;-86
2023/09/03 06:50:30;;;;;;;6.20;3.10;;;;;;;;;;5068593;28;20031;-86
2023/09/03 06:52:55;;;;;;;4.65;2.53;;;;;;;;;;5068101;28;20027;-86
2023/09/03 06:55:21;;;;;;;5.32;2.83;;;;;;;;;;5087298;28;20024;-87
2023/09/03 06:57:46;;;;;;;3.47;2.20;;;;;;;;;;5069020;28;20480;-86
2023/09/03 07:00:12;;;;;;;3.65;2.40;;;;;;;;;;5065614;28;20080;-87
2023/09/03 07:02:38;;;;;;;5.18;2.70;;;;;;;;;;5087150;28;20058;-87
2023/09/03 07:05:03;;;;;;;3.75;2.30;;;;;;;;;;5084294;28;20031;-87
2023/09/03 07:07:29;;;;;;;4.35;2.60;;;;;;;;;;5082081;28;20070;-86
2023/09/03 07:09:54;;;;;;;3.33;2.58;;;;;;;;;;5065845;28;20039;-86
2023/09/03 07:12:20;;;;;;;5.05;2.58;;;;;;;;;;5067282;28;20169;-86
2023/09/03 07:14:46;;;;;;;3.38;2.83;;;;;;;;;;5086288;28;20028;-86
2023/09/03 07:17:12;;;;;;;3.95;2.63;;;;;;;;;;5068958;28;20027;-86
2023/09/03 07:19:37;;;;;;;6.00;2.90;;;;;;;;;;5065971;28;20031;-86
2023/09/03 07:22:03;;;;;;;4.22;2.67;;;;;;;;;;5086731;28;20024;-86
2023/09/03 07:24:28;;;;;;;3.60;2.95;;;;;;;;;;5068487;28;20058;-87
2023/09/03 07:26:54;;;;;;;3.40;2.50;;;;;;;;;;5084844;28;20022;-86
2023/09/03 07:29:19;;;;;;;4.00;2.83;;;;;;;;;;5068018;28;20047;-86
2023/09/03 07:31:44;;;;;;;4.55;2.80;;;;;;;;;;5068853;28;20111;-87
2023/09/03 07:34:10;;;;;;;3.83;2.63;;;;;;;;;;5068915;28;20061;-87
2023/09/03 07:36:36;;;;;;;3.70;2.40;;;;;;;;;;5087265;28;20028;-87
2023/09/03 07:39:05;;;;;;;3.83;2.45;;;;;;;;;;5068137;28;20043;-87
2023/09/03 07:41:32;;;;;;;4.85;2.83;;;;;;;;;;5066646;28;20031;-87
2023/09/03 07:43:57;;;;;;;4.07;2.67;;;;;;;;;;5084939;28;20032;-88
2023/09/03 07:46:23;;;;;;;4.90;2.80;;;;;;;;;;5087747;28;20030;-87
2023/09/03 07:48:49;;;;;;;3.38;2.65;;;;;;;;;;5087116;28;20123;-87
2023/09/03 07:51:16;;;;;;;4.95;2.78;;;;;;;;;;5087070;28;20091;-87
2023/09/03 07:53:42;;;;;;;6.28;3.08;;;;;;;;;;5087455;28;20127;-87
2023/09/03 07:56:07;;;;;;;6.18;3.17;;;;;;;;;;5088364;28;20146;-87
2023/09/03 07:58:33;;;;;;;6.93;2.78;;;;;;;;;;5089171;28;20077;-87
2023/09/03 08:00:58;;;;;;;3.45;2.88;;;;;;;;;;5095800;28;20072;-87
2023/09/03 08:03:33;;;;;;;4.43;2.85;;;;;;;;;;5084927;28;20060;-87
2023/09/03 08:05:59;;;;;;;5.53;2.80;;;;;;;;;;5111605;28;20038;-86
2023/09/03 08:08:25;;;;;;;4.03;2.83;;;;;;;;;;5083270;28;20028;-86
2023/09/03 08:10:51;;;;;;;6.75;2.97;;;;;;;;;;5100910;28;20031;-86
2023/09/03 08:13:16;;;;;;;4.47;2.90;;;;;;;;;;5098434;28;20019;-86
2023/09/03 08:15:41;;;;;;;3.88;2.78;;;;;;;;;;5078521;28;20541;-86
2023/09/03 08:18:07;;;;;;;4.25;2.63;;;;;;;;;;5082252;28;20410;-86
2023/09/03 08:20:32;;;;;;;4.45;2.90;;;;;;;;;;5098287;28;20024;-86
2023/09/03 08:22:57;;;;;;;3.10;2.65;;;;;;;;;;5094095;28;20042;-86
2023/09/03 08:25:23;;;;;;;4.22;3.10;;;;;;;;;;5097427;28;20103;-86
2023/09/03 08:27:48;;;;;;;3.80;2.88;;;;;;;;;;5098654;28;20024;-86
2023/09/03 08:30:14;;;;;;;7.32;2.67;;;;;;;;;;5094296;28;20077;-87
2023/09/03 08:32:39;;;;;;;4.03;2.55;;;;;;;;;;5089614;28;20116;-86
2023/09/03 08:35:05;;;;;;;4.40;2.95;;;;;;;;;;5093291;28;20402;-86
2023/09/03 08:37:30;;;;;;;3.53;2.80;;;;;;;;;;5075645;28;20044;-86
2023/09/03 08:39:56;;;;;;;4.63;3.08;;;;;;;;;;5091684;28;20058;-86
2023/09/03 08:42:21;;;;;;;4.45;2.80;;;;;;;;;;5074009;28;20036;-87
2023/09/03 08:44:53;;;;;;;4.63;2.88;;;;;;;;;;5093794;28;20027;-87
2023/09/03 08:47:18;;;;;;;2.65;2.35;;;;;;;;;;5095509;28;20099;-87
2023/09/03 08:49:45;;;;;;;2.72;2.35;;;;;;;;;;5073746;28;20123;-87
2023/09/03 08:52:11;;;;;;;2.60;2.28;;;;;;;;;;5092486;28;20024;-87
2023/09/03 08:54:38;;;;;;;2.97;2.35;;;;;;;;;;5093335;28;20042;-86
2023/09/03 08:57:05;;;;;;;2.00;1.77;;;;;;;;;;5072745;28;20055;-87
2023/09/03 08:59:31;;;;;;;2.83;1.80;;;;;;;;;;5074680;28;20065;-87
2023/09/03 09:01:57;;;;;;;4.60;2.20;;;;;;;;;;5074430;28;20032;-87
2023/09/03 09:04:29;;;;;;;3.97;2.35;;;;;;;;;;5094839;28;20432;-87
2023/09/03 09:06:56;;;;;;;4.03;2.63;;;;;;;;;;5090126;28;20024;-87
2023/09/03 09:09:25;;;;;;;3.63;3.00;;;;;;;;;;5089534;28;20035;-88
2023/09/03 09:12:09;;;;;;;5.00;3.08;;;;;;;;;;5091597;28;20031;-87
2023/09/03 09:14:40;;;;;;;3.70;2.67;;;;;;;;;;5092801;28;20042;-88
2023/09/03 09:17:12;;;;;;;3.00;2.60;;;;;;;;;;5093885;28;20048;-88
2023/09/03 09:19:41;;;;;;;5.53;2.60;;;;;;;;;;5093963;28;20440;-88
2023/09/03 09:22:06;;;;;;;2.85;2.20;;;;;;;;;;5073565;28;20040;-87
2023/09/03 09:24:43;;;;;;;2.45;2.05;;;;;;;;;;5094017;28;20050;-88
2023/09/03 09:27:18;;;;;;;3.00;2.17;;;;;;;;;;5076032;28;20074;-87
2023/09/03 09:29:43;;;;;;;2.42;1.95;;;;;;;;;;5076403;28;20112;-88
2023/09/03 09:32:19;;;;;;;3.13;2.05;;;;;;;;;;5070082;28;20114;-87
2023/09/03 09:34:46;;;;;;;2.72;1.90;;;;;;;;;;5091877;28;20066;-87
2023/09/03 09:37:13;;;;;;;2.88;1.73;;;;;;;;;;5091940;28;20031;-87
2023/09/03 09:39:48;;;;;;;2.70;1.60;;;;;;;;;;5091161;28;20433;-87
2023/09/03 09:42:20;;;;;;;3.20;1.52;;;;;;;;;;5090004;28;20105;-87
2023/09/03 09:44:48;;;;;;;2.05;1.50;;;;;;;;;;5077704;28;20111;-87
2023/09/03 09:47:21;;;;;;;1.85;1.73;;;;;;;;;;5076279;28;20028;-87
2023/09/03 09:49:47;;;;;;;2.10;1.40;;;;;;;;;;5072834;28;20020;-87
2023/09/03 09:52:19;;;;;;;1.88;1.10;;;;;;;;;;5091049;28;20058;-87
2023/09/03 09:54:48;;;;;;;;;;;;;;;;;;5091133;28;20066;-88
2023/09/03 09:57:17;;;;;;;1.40;0.93;;;;;;;;;;5091181;28;20008;-87
2023/09/03 09:59:43;;;;;;;1.10;1.00;;;;;;;;;;5092023;28;20035;-87
2023/09/03 10:02:16;;;;;;;1.30;1.20;;;;;;;;;;5090046;28;20062;-87
2023/09/03 10:04:51;;;;;;;1.13;1.00;;;;;;;;;;5089930;28;20468;-87
2023/09/03 10:07:16;;;;;;;1.30;1.20;;;;;;;;;;5090268;28;20430;-87
2023/09/03 10:09:46;;;;;;;1.17;1.08;;;;;;;;;;5090315;28;20031;-87
2023/09/03 10:12:12;;;;;;;1.30;1.20;;;;;;;;;;5087376;28;20032;-87
2023/09/03 10:14:39;;;;;;;1.75;1.10;;;;;;;;;;5068601;28;20140;-87
2023/09/03 10:17:06;;;;;;;1.00;1.00;;;;;;;;;;5067125;28;20123;-87
2023/09/03 10:19:47;;;;;;;1.20;1.10;;;;;;;;;;5072520;28;20098;-87
2023/09/03 10:22:16;;;;;;;1.50;1.10;;;;;;;;;;5090842;28;20130;-87
2023/09/03 10:24:43;;;;;;;1.10;1.10;;;;;;;;;;5070867;28;20063;-87
2023/09/03 10:27:12;;;;;;;0.98;0.98;;;;;;;;;;5073352;28;20067;-87
2023/09/03 10:29:41;;;;;;;1.30;1.20;;;;;;;;;;5071364;28;21036;-87
2023/09/03 10:32:10;;;;;;;3.05;0.88;;;;;;;;;;5086887;28;20032;-87
2023/09/03 10:34:39;;;;;;;0.88;0.88;;;;;;;;;;5075589;28;20039;-87
2023/09/03 10:37:12;;;;;;;0.80;0.77;;;;;;;;;;5087964;28;20493;-87
2023/09/03 10:39:40;;;;;;;0.93;0.90;;;;;;;;;;5088197;28;20035;-87
2023/09/03 10:42:15;;;;;;;0.88;0.70;;;;;;;;;;5076089;28;20036;-86
2023/09/03 10:44:44;;;;;;;1.25;1.10;;;;;;;;;;5070571;28;20067;-87
2023/09/03 10:47:17;;;;;;;1.13;0.70;;;;;;;;;;5087123;28;20503;-86
2023/09/03 10:49:47;;;;;;;0.90;0.90;;;;;;;;;;5073284;28;20039;-87
2023/09/03 10:52:31;;;;;;;0.98;0.90;;;;;;;;;;5072320;28;20111;-87
2023/09/03 10:55:20;;;;;;;4.20;0.95;;;;;;;;;;5084853;28;20126;-87
2023/09/03 10:58:25;;;;;;;0.82;0.75;;;;;;;;;;5072460;28;20103;-87
2023/09/03 11:01:15;;;;;;;0.60;0.60;;;;;;;;;;5005317;28;20120;-87
2023/09/03 11:03:49;;;;;;;0.70;0.70;;;;;;;;;;5086290;28;20058;-87
2023/09/03 11:06:24;;;;;;;0.68;0.68;;;;;;;;;;5070564;28;20035;-86
2023/09/03 11:08:59;;;;;;;0.75;0.60;;;;;;;;;;5071691;28;20034;-87
2023/09/03 11:11:31;;;;;;;0.77;0.77;;;;;;;;;;5086742;28;20034;-86
2023/09/03 11:13:59;;;;;;;1.02;0.75;;;;;;;;;;5092006;28;20030;-87
2023/09/03 11:16:29;;;;;;;0.82;0.80;;;;;;;;;;5068985;28;20024;-87
2023/09/03 11:18:58;;;;;;;0.65;0.65;;;;;;;;;;5089609;28;20039;-87
2023/09/03 11:21:30;;;;;;;1.05;0.90;;;;;;;;;;5084186;28;20089;-87
2023/09/03 11:24:13;;;;;;;0.80;0.80;;;;;;;;;;5083464;28;20034;-87
2023/09/03 11:26:38;;;;;;;1.50;0.93;;;;;;;;;;5070835;28;20024;-88
2023/09/03 11:29:26;;;;;;;0.70;0.70;;;;;;;;;;5090537;28;20023;-87
2023/09/03 11:31:51;;;;;;;1.65;0.95;;;;;;;;;;5093711;28;20394;-87
2023/09/03 11:34:22;;;;;;;0.90;0.90;;;;;;;;;;5104881;28;20016;-87
2023/09/03 11:36:48;;;;;;;0.90;0.90;;;;;;;;;;5107448;28;20032;-87
2023/09/03 11:39:15;;;;;;;1.00;1.00;;;;;;;;;;5105241;28;20040;-87
2023/09/03 11:41:47;;;;;;;0.80;0.80;;;;;;;;;;5090370;28;20085;-87
2023/09/03 11:44:18;;;;;;;1.10;1.00;;;;;;;;;;5090484;28;20490;-87
2023/09/03 11:47:00;;;;;;;;;;;;;;;;;;5070363;28;20039;-87
2023/09/03 11:49:26;;;;;;;0.90;0.88;;;;;;;;;;5087692;28;20268;-87
2023/09/03 11:51:52;;;;;;;1.27;1.17;;;;;;;;;;5065115;28;20542;-87
2023/09/03 11:54:24;;;;;;;0.80;0.80;;;;;;;;;;5066483;28;20035;-87
2023/09/03 11:56:53;;;;;;;1.02;0.98;;;;;;;;;;5086453;28;20012;-87
2023/09/03 11:59:19;;;;;;;1.33;1.13;;;;;;;;;;5089775;28;20032;-87
2023/09/03 12:01:45;;;;;;;0.85;0.85;;;;;;;;;;5087285;28;20376;-87
2023/09/03 12:04:10;;;;;;;0.70;0.70;;;;;;;;;;5075913;28;20066;-88
2023/09/03 12:06:37;;;;;;;1.10;1.00;;;;;;;;;;5067854;28;20605;-87
2023/09/03 12:09:03;;;;;;;0.90;0.90;;;;;;;;;;5089113;28;20059;-87
2023/09/03 12:11:32;;;;;;;1.00;1.00;;;;;;;;;;5088592;28;20052;-87
2023/09/03 12:13:57;;;;;;;2.33;0.90;;;;;;;;;;5089849;28;20020;-87
2023/09/03 12:16:24;;;;;;;1.67;1.10;;;;;;;;;;5089844;28;20039;-84
2023/09/03 12:18:59;;;;;;;1.60;1.23;;;;;;;;;;5073143;28;20145;-82
2023/09/03 12:21:35;;;;;;;1.00;1.00;;;;;;;;;;5089119;28;20139;-84
2023/09/03 12:24:03;;;;;;;0.93;0.93;;;;;;;;;;5072036;28;20421;-83
2023/09/03 12:26:30;;;;;;;0.88;0.88;;;;;;;;;;5088648;28;20028;-84
2023/09/03 12:28:58;;;;;;;2.78;1.23;;;;;;;;;;5090181;28;20016;-84
2023/09/03 12:31:40;;;;;;;1.48;1.38;;;;;;;;;;5089312;28;20028;-84
2023/09/03 12:34:05;;;;;;;1.25;1.05;;;;;;;;;;5092615;28;20492;-84
2023/09/03 12:36:31;;;;;;;1.10;1.00;;;;;;;;;;5073759;28;20020;-84
2023/09/03 12:39:03;;;;;;;1.20;1.10;;;;;;;;;;5089696;28;20020;-84
2023/09/03 12:41:37;;;;;;;3.15;1.23;;;;;;;;;;5070438;28;20064;-84
2023/09/03 12:44:09;;;;;;;2.20;1.10;;;;;;;;;;5071286;28;20177;-84
2023/09/03 12:46:35;;;;;;;1.23;1.13;;;;;;;;;;5091814;28;20028;-84
2023/09/03 12:49:02;;;;;;;1.30;1.20;;;;;;;;;;5074134;28;20081;-84
2023/09/03 12:51:27;;;;;;;1.02;1.02;;;;;;;;;;5069936;28;20028;-84
2023/09/03 12:53:53;;;;;;;1.15;1.05;;;;;;;;;;5089974;28;20031;-84
2023/09/03 12:56:18;;;;;;;1.90;0.98;;;;;;;;;;5090543;28;20417;-83
2023/09/03 12:58:46;;;;;;;1.13;1.02;;;;;;;;;;5088987;28;20028;-83
2023/09/03 13:01:12;;;;;;;0.95;0.90;;;;;;;;;;5073026;28;20028;-84
2023/09/03 13:03:37;;;;;;;1.85;1.23;;;;;;;;;;5073337;28;20024;-83
2023/09/03 13:06:03;;;;;;;1.58;1.10;;;;;;;;;;5089654;28;20032;-84
2023/09/03 13:08:29;;;;;;;1.10;1.00;;;;;;;;;;5067717;28;20087;-85
2023/09/03 13:10:54;;;;;;;1.85;1.02;;;;;;;;;;5067709;28;20027;-83
2023/09/03 13:13:20;;;;;;;0.95;0.95;;;;;;;;;;5091769;28;20183;-84
2023/09/03 13:15:45;;;;;;;1.00;1.00;;;;;;;;;;5088200;28;20022;-84
2023/09/03 13:18:11;;;;;;;0.77;0.77;;;;;;;;;;5070892;28;20928;-84
2023/09/03 13:20:36;;;;;;;1.10;1.00;;;;;;;;;;5070842;28;20079;-84
2023/09/03 13:23:02;;;;;;;0.93;0.70;;;;;;;;;;5066767;28;20532;-84
2023/09/03 13:25:28;;;;;;;1.02;0.98;;;;;;;;;;5067071;28;20103;-84
2023/09/03 13:27:53;;;;;;;2.22;1.05;;;;;;;;;;5088455;28;20139;-84
2023/09/03 13:30:19;;;;;;;0.70;0.70;;;;;;;;;;5066672;28;20077;-83
2023/09/03 13:32:44;;;;;;;0.90;0.90;;;;;;;;;;5066668;28;20032;-84
2023/09/03 13:35:09;;;;;;;1.23;1.02;;;;;;;;;;5084053;28;20070;-84
2023/09/03 13:37:35;;;;;;;0.73;0.73;;;;;;;;;;5086241;28;20039;-83
2023/09/03 13:40:02;;;;;;;0.80;0.63;;;;;;;;;;5086170;28;20100;-84
2023/09/03 13:42:28;;;;;;;0.88;0.73;;;;;;;;;;5080471;28;20051;-83
2023/09/03 13:44:53;;;;;;;1.17;1.00;;;;;;;;;;5064151;28;20039;-83
2023/09/03 13:47:19;;;;;;;1.10;1.00;;;;;;;;;;5088105;28;20035;-83
2023/09/03 13:56:28;;;;;;;0.95;0.90;;;;;;;;;;5077980;28;20493;-84
2023/09/03 13:58:53;;;;;;;0.70;0.70;;;;;;;;;;5077068;28;20051;-83
2023/09/03 14:04:48;;;;;;;;;;;;;;;;;;5102578;27;20050;-85
2023/09/03 14:07:34;;;;;;;0.93;0.73;;;;;;;;;;5084598;28;19920;-84
2023/09/03 14:10:21;;;;;;;0.57;0.57;;;;;;;;;;5096349;28;20413;-83
2023/09/03 14:12:47;;;;;;;1.88;0.60;;;;;;;;;;5082906;28;20042;-82
2023/09/03 14:15:12;;;;;;;0.63;0.63;;;;;;;;;;5082146;28;20027;-83
2023/09/03 14:17:39;;;;;;;0.70;0.70;;;;;;;;;;5084911;28;20081;-83
2023/09/03 14:20:05;;;;;;;1.25;0.80;;;;;;;;;;5099952;28;20043;-83
2023/09/03 14:22:31;;;;;;;1.02;0.93;;;;;;;;;;5083096;28;20509;-83
2023/09/03 14:24:56;;;;;;;1.35;1.20;;;;;;;;;;5080301;28;20054;-83
2023/09/03 14:27:22;;;;;;;2.63;1.00;;;;;;;;;;5099788;28;20081;-82
2023/09/03 14:29:47;;;;;;;1.25;1.00;;;;;;;;;;5081174;28;20020;-82
2023/09/03 14:32:13;;;;;;;3.22;1.63;;;;;;;;;;5104161;28;20039;-82
2023/09/03 14:34:40;;;;;;;1.80;1.38;;;;;;;;;;5098198;28;20031;-83
2023/09/03 14:37:06;;;;;;;1.50;1.40;;;;;;;;;;5076151;28;20582;-82
2023/09/03 14:39:31;;;;;;;1.27;1.17;;;;;;;;;;5082426;28;20065;-82
2023/09/03 14:41:57;;;;;;;1.10;0.98;;;;;;;;;;5081896;28;20038;-82
2023/09/03 14:44:22;;;;;;;1.02;0.93;;;;;;;;;;5075956;28;20059;-80
2023/09/03 14:46:47;;;;;;;1.10;1.10;;;;;;;;;;5076850;28;20030;-80
2023/09/03 14:49:18;;;;;;;1.52;1.17;;;;;;;;;;5083569;28;20899;-80
2023/09/03 14:51:44;;;;;;;2.35;0.90;;;;;;;;;;5094051;28;20027;-81
2023/09/03 14:54:09;;;;;;;0.60;0.60;;;;;;;;;;5100724;28;20047;-81
2023/09/03 14:56:34;;;;;;;0.82;0.82;;;;;;;;;;5084998;28;20023;-81
2023/09/03 14:59:00;;;;;;;0.90;0.70;;;;;;;;;;5095382;28;20027;-81
2023/09/03 15:01:26;;;;;;;2.22;1.10;;;;;;;;;;5096928;28;20034;-82
2023/09/03 15:03:51;;;;;;;1.00;0.90;;;;;;;;;;5079722;28;20128;-82
2023/09/03 15:06:17;;;;;;;0.80;0.73;;;;;;;;;;5078484;28;20043;-81
2023/09/03 15:08:43;;;;;;;0.85;0.85;;;;;;;;;;5075315;28;20031;-81
2023/09/03 15:11:16;;;;;;;1.50;0.93;;;;;;;;;;5095659;28;20070;-81
2023/09/03 15:13:43;;;;;;;1.08;0.93;;;;;;;;;;5074543;28;20031;-81
2023/09/03 15:16:09;;;;;;;0.75;0.75;;;;;;;;;;5091498;28;20110;-81
2023/09/03 15:18:36;;;;;;;1.23;0.82;;;;;;;;;;5099608;28;20023;-81
2023/09/03 15:21:01;;;;;;;0.93;0.85;;;;;;;;;;5076842;28;20034;-81
2023/09/03 15:23:26;;;;;;;0.70;0.70;;;;;;;;;;5078885;28;20123;-81
2023/09/03 15:25:52;;;;;;;0.77;0.70;;;;;;;;;;5075719;28;20039;-81
2023/09/03 15:28:21;;;;;;;0.90;0.90;;;;;;;;;;5097746;28;20027;-81
2023/09/03 15:30:47;;;;;;;0.57;0.57;;;;;;;;;;5094159;28;20031;-81
2023/09/03 15:33:12;;;;;;;0.80;0.80;;;;;;;;;;5076755;28;20035;-80